sensor_id;sensor_type;location;lat;lon;timestamp;temperature;humidity
921;DHT22;447;51.332;6.778;2023-09-18T00:00:19;24.50;96.50
921;DHT22;447;51.332;6.778;2023-09-18T00:02:50;24.50;96.50
921;DHT22;447;51.332;6.778;2023-09-18T00:05:16;24.50;96.50
921;DHT22;447;51.332;6.778;2023-09-18T00:07:44;24.50;96.50
921;DHT22;447;51.332;6.778;2023-09-18T00:10:13;24.50;96.50
921;DHT22;447;51.332;6.778;2023-09-18T00:12:44;24.50;96.50
921;DHT22;447;51.332;6.778;2023-09-18T00:15:17;24.50;96.50
921;DHT22;447;51.332;6.778;2023-09-18T00:17:45;24.50;96.50
921;DHT22;447;51.332;6.778;2023-09-18T00:20:17;24.50;96.50
921;DHT22;447;51.332;6.778;2023-09-18T00:22:47;24.50;96.50
921;DHT22;447;51.332;6.778;2023-09-18T00:25:13;24.40;96.50
921;DHT22;447;51.332;6.778;2023-09-18T00:27:40;24.40;96.50
921;DHT22;447;51.332;6.778;2023-09-18T00:30:07;24.40;96.50
921;DHT22;447;51.332;6.778;2023-09-18T00:32:39;24.40;96.50
921;DHT22;447;51.332;6.778;2023-09-18T00:35:05;24.40;96.50
921;DHT22;447;51.332;6.778;2023-09-18T00:37:31;24.40;96.50
921;DHT22;447;51.332;6.778;2023-09-18T00:40:01;24.40;96.50
921;DHT22;447;51.332;6.778;2023-09-18T00:42:29;24.40;96.50
921;DHT22;447;51.332;6.778;2023-09-18T00:45:00;24.40;96.50
921;DHT22;447;51.332;6.778;2023-09-18T00:47:31;24.40;96.80
921;DHT22;447;51.332;6.778;2023-09-18T00:49:59;24.40;96.50
921;DHT22;447;51.332;6.778;2023-09-18T00:52:26;24.30;96.40
921;DHT22;447;51.332;6.778;2023-09-18T00:54:53;24.40;96.50
921;DHT22;447;51.332;6.778;2023-09-18T00:57:20;24.30;96.50
921;DHT22;447;51.332;6.778;2023-09-18T00:59:46;24.30;96.50
921;DHT22;447;51.332;6.778;2023-09-18T01:02:12;24.30;96.50
921;DHT22;447;51.332;6.778;2023-09-18T01:04:41;24.30;96.50
921;DHT22;447;51.332;6.778;2023-09-18T01:07:10;24.30;96.50
921;DHT22;447;51.332;6.778;2023-09-18T01:09:37;24.30;96.50
921;DHT22;447;51.332;6.778;2023-09-18T01:12:05;24.30;96.50
921;DHT22;447;51.332;6.778;2023-09-18T01:14:55;24.30;96.50
921;DHT22;447;51.332;6.778;2023-09-18T01:17:22;24.30;96.50
921;DHT22;447;51.332;6.778;2023-09-18T01:19:49;24.20;96.50
921;DHT22;447;51.332;6.778;2023-09-18T01:22:17;24.20;96.50
921;DHT22;447;51.332;6.778;2023-09-18T01:24:45;24.20;96.50
921;DHT22;447;51.332;6.778;2023-09-18T01:27:18;24.20;96.50
921;DHT22;447;51.332;6.778;2023-09-18T01:29:47;24.20;96.50
921;DHT22;447;51.332;6.778;2023-09-18T01:32:16;24.20;96.50
921;DHT22;447;51.332;6.778;2023-09-18T01:34:50;24.20;96.50
921;DHT22;447;51.332;6.778;2023-09-18T01:37:23;24.20;96.50
921;DHT22;447;51.332;6.778;2023-09-18T01:39:50;24.20;96.50
921;DHT22;447;51.332;6.778;2023-09-18T01:42:17;24.20;96.50
921;DHT22;447;51.332;6.778;2023-09-18T01:44:47;24.20;96.50
921;DHT22;447;51.332;6.778;2023-09-18T01:47:16;24.20;96.50
921;DHT22;447;51.332;6.778;2023-09-18T01:49:43;24.10;96.50
921;DHT22;447;51.332;6.778;2023-09-18T01:52:10;24.10;96.50
921;DHT22;447;51.332;6.778;2023-09-18T01:54:36;24.10;96.50
921;DHT22;447;51.332;6.778;2023-09-18T01:57:03;24.10;96.50
921;DHT22;447;51.332;6.778;2023-09-18T01:59:29;24.10;96.50
921;DHT22;447;51.332;6.778;2023-09-18T02:01:59;24.10;96.50
921;DHT22;447;51.332;6.778;2023-09-18T02:04:25;24.10;96.50
921;DHT22;447;51.332;6.778;2023-09-18T02:06:52;24.10;96.50
921;DHT22;447;51.332;6.778;2023-09-18T02:09:21;24.10;96.50
921;DHT22;447;51.332;6.778;2023-09-18T02:11:47;24.10;96.50
921;DHT22;447;51.332;6.778;2023-09-18T02:14:16;24.10;96.50
921;DHT22;447;51.332;6.778;2023-09-18T02:16:46;24.10;96.50
921;DHT22;447;51.332;6.778;2023-09-18T02:19:15;24.10;96.50
921;DHT22;447;51.332;6.778;2023-09-18T02:21:42;24.10;96.50
921;DHT22;447;51.332;6.778;2023-09-18T02:24:09;24.00;96.50
921;DHT22;447;51.332;6.778;2023-09-18T02:26:40;24.00;96.50
921;DHT22;447;51.332;6.778;2023-09-18T02:29:09;24.00;96.50
921;DHT22;447;51.332;6.778;2023-09-18T02:31:40;24.00;96.50
921;DHT22;447;51.332;6.778;2023-09-18T02:34:08;24.00;96.50
921;DHT22;447;51.332;6.778;2023-09-18T02:36:40;24.00;96.50
921;DHT22;447;51.332;6.778;2023-09-18T02:39:09;24.00;96.50
921;DHT22;447;51.332;6.778;2023-09-18T02:41:38;24.00;96.60
921;DHT22;447;51.332;6.778;2023-09-18T02:44:07;23.90;96.60
921;DHT22;447;51.332;6.778;2023-09-18T02:46:37;23.90;96.50
921;DHT22;447;51.332;6.778;2023-09-18T02:49:03;23.90;96.50
921;DHT22;447;51.332;6.778;2023-09-18T02:51:32;23.90;96.60
921;DHT22;447;51.332;6.778;2023-09-18T02:53:58;23.90;96.90
921;DHT22;447;51.332;6.778;2023-09-18T02:56:24;23.90;96.60
921;DHT22;447;51.332;6.778;2023-09-18T02:58:57;23.90;96.60
921;DHT22;447;51.332;6.778;2023-09-18T03:01:26;23.90;96.60
921;DHT22;447;51.332;6.778;2023-09-18T03:03:57;23.90;96.60
921;DHT22;447;51.332;6.778;2023-09-18T03:06:25;23.90;96.60
921;DHT22;447;51.332;6.778;2023-09-18T03:08:51;23.90;96.60
921;DHT22;447;51.332;6.778;2023-09-18T03:11:20;23.90;96.60
921;DHT22;447;51.332;6.778;2023-09-18T03:13:47;23.90;96.60
921;DHT22;447;51.332;6.778;2023-09-18T03:16:14;23.80;96.60
921;DHT22;447;51.332;6.778;2023-09-18T03:18:44;23.80;96.70
921;DHT22;447;51.332;6.778;2023-09-18T03:21:10;23.80;96.70
921;DHT22;447;51.332;6.778;2023-09-18T03:23:36;23.80;96.70
921;DHT22;447;51.332;6.778;2023-09-18T03:26:04;23.80;96.80
921;DHT22;447;51.332;6.778;2023-09-18T03:28:31;23.80;96.70
921;DHT22;447;51.332;6.778;2023-09-18T03:30:59;23.80;96.80
921;DHT22;447;51.332;6.778;2023-09-18T03:33:26;23.80;96.80
921;DHT22;447;51.332;6.778;2023-09-18T03:35:55;23.80;96.80
921;DHT22;447;51.332;6.778;2023-09-18T03:38:26;23.80;96.80
921;DHT22;447;51.332;6.778;2023-09-18T03:41:00;23.80;96.80
921;DHT22;447;51.332;6.778;2023-09-18T03:43:29;23.80;96.80
921;DHT22;447;51.332;6.778;2023-09-18T03:46:03;23.80;96.80
921;DHT22;447;51.332;6.778;2023-09-18T03:48:35;23.80;96.80
921;DHT22;447;51.332;6.778;2023-09-18T03:51:07;23.80;97.10
921;DHT22;447;51.332;6.778;2023-09-18T03:53:38;23.80;96.80
921;DHT22;447;51.332;6.778;2023-09-18T03:56:04;23.80;96.80
921;DHT22;447;51.332;6.778;2023-09-18T03:58:30;23.80;96.80
921;DHT22;447;51.332;6.778;2023-09-18T04:00:56;23.80;96.80
921;DHT22;447;51.332;6.778;2023-09-18T04:03:23;23.80;96.80
921;DHT22;447;51.332;6.778;2023-09-18T04:05:51;23.80;96.80
921;DHT22;447;51.332;6.778;2023-09-18T04:08:20;23.80;96.90
921;DHT22;447;51.332;6.778;2023-09-18T04:10:49;23.70;96.80
921;DHT22;447;51.332;6.778;2023-09-18T04:13:14;23.80;96.90
921;DHT22;447;51.332;6.778;2023-09-18T04:15:40;23.70;96.90
921;DHT22;447;51.332;6.778;2023-09-18T04:18:06;23.70;96.90
921;DHT22;447;51.332;6.778;2023-09-18T04:20:34;23.70;96.90
921;DHT22;447;51.332;6.778;2023-09-18T04:23:23;23.70;96.90
921;DHT22;447;51.332;6.778;2023-09-18T04:25:55;23.70;96.90
921;DHT22;447;51.332;6.778;2023-09-18T04:28:26;23.70;96.90
921;DHT22;447;51.332;6.778;2023-09-18T04:30:54;23.70;96.90
921;DHT22;447;51.332;6.778;2023-09-18T04:33:21;23.70;96.90
921;DHT22;447;51.332;6.778;2023-09-18T04:35:49;23.70;96.90
921;DHT22;447;51.332;6.778;2023-09-18T04:38:15;23.70;96.90
921;DHT22;447;51.332;6.778;2023-09-18T04:40:41;23.70;96.90
921;DHT22;447;51.332;6.778;2023-09-18T04:43:10;23.70;96.90
921;DHT22;447;51.332;6.778;2023-09-18T04:45:41;23.70;96.80
921;DHT22;447;51.332;6.778;2023-09-18T04:48:09;23.70;96.80
921;DHT22;447;51.332;6.778;2023-09-18T04:50:37;23.70;96.90
921;DHT22;447;51.332;6.778;2023-09-18T04:53:05;23.70;96.90
921;DHT22;447;51.332;6.778;2023-09-18T04:55:35;23.70;96.90
921;DHT22;447;51.332;6.778;2023-09-18T04:58:01;23.70;96.90
921;DHT22;447;51.332;6.778;2023-09-18T05:00:27;23.70;96.80
921;DHT22;447;51.332;6.778;2023-09-18T05:02:57;23.70;96.90
921;DHT22;447;51.332;6.778;2023-09-18T05:05:30;23.60;96.70
921;DHT22;447;51.332;6.778;2023-09-18T05:08:06;23.60;96.70
921;DHT22;447;51.332;6.778;2023-09-18T05:10:35;23.60;96.70
921;DHT22;447;51.332;6.778;2023-09-18T05:13:07;23.60;96.70
921;DHT22;447;51.332;6.778;2023-09-18T05:15:33;23.60;96.70
921;DHT22;447;51.332;6.778;2023-09-18T05:18:00;23.60;96.70
921;DHT22;447;51.332;6.778;2023-09-18T05:20:28;23.60;96.70
921;DHT22;447;51.332;6.778;2023-09-18T05:22:58;23.60;96.70
921;DHT22;447;51.332;6.778;2023-09-18T05:25:29;23.60;96.80
921;DHT22;447;51.332;6.778;2023-09-18T05:27:59;23.60;96.80
921;DHT22;447;51.332;6.778;2023-09-18T05:30:34;23.60;96.80
921;DHT22;447;51.332;6.778;2023-09-18T05:33:02;23.60;96.80
921;DHT22;447;51.332;6.778;2023-09-18T05:35:34;23.60;96.90
921;DHT22;447;51.332;6.778;2023-09-18T05:38:03;23.60;96.90
921;DHT22;447;51.332;6.778;2023-09-18T05:40:32;23.60;96.80
921;DHT22;447;51.332;6.778;2023-09-18T05:42:58;23.60;96.80
921;DHT22;447;51.332;6.778;2023-09-18T05:45:24;23.50;96.80
921;DHT22;447;51.332;6.778;2023-09-18T05:47:57;23.50;96.90
921;DHT22;447;51.332;6.778;2023-09-18T05:50:30;23.50;96.90
921;DHT22;447;51.332;6.778;2023-09-18T05:52:58;23.50;96.90
921;DHT22;447;51.332;6.778;2023-09-18T05:55:31;23.50;96.90
921;DHT22;447;51.332;6.778;2023-09-18T05:58:00;23.50;96.90
921;DHT22;447;51.332;6.778;2023-09-18T06:00:32;23.50;96.80
921;DHT22;447;51.332;6.778;2023-09-18T06:03:06;23.50;96.80
921;DHT22;447;51.332;6.778;2023-09-18T06:05:32;23.50;96.80
921;DHT22;447;51.332;6.778;2023-09-18T06:08:03;23.50;96.80
921;DHT22;447;51.332;6.778;2023-09-18T06:10:29;23.50;96.80
921;DHT22;447;51.332;6.778;2023-09-18T06:12:55;23.50;96.90
921;DHT22;447;51.332;6.778;2023-09-18T06:15:22;23.50;96.80
921;DHT22;447;51.332;6.778;2023-09-18T06:17:48;23.50;96.80
921;DHT22;447;51.332;6.778;2023-09-18T06:20:14;23.50;96.80
921;DHT22;447;51.332;6.778;2023-09-18T06:22:41;23.50;96.90
921;DHT22;447;51.332;6.778;2023-09-18T06:25:08;23.50;96.80
921;DHT22;447;51.332;6.778;2023-09-18T06:27:36;23.50;96.80
921;DHT22;447;51.332;6.778;2023-09-18T06:30:05;23.50;96.80
921;DHT22;447;51.332;6.778;2023-09-18T06:32:35;23.50;96.80
921;DHT22;447;51.332;6.778;2023-09-18T06:35:03;23.50;96.80
921;DHT22;447;51.332;6.778;2023-09-18T06:37:32;23.50;96.90
921;DHT22;447;51.332;6.778;2023-09-18T06:40:01;23.50;96.80
921;DHT22;447;51.332;6.778;2023-09-18T06:42:31;23.40;96.80
921;DHT22;447;51.332;6.778;2023-09-18T06:45:00;23.40;96.80
921;DHT22;447;51.332;6.778;2023-09-18T06:47:30;23.40;96.90
921;DHT22;447;51.332;6.778;2023-09-18T06:49:59;23.40;96.90
921;DHT22;447;51.332;6.778;2023-09-18T06:52:28;23.40;96.90
921;DHT22;447;51.332;6.778;2023-09-18T06:54:54;23.40;96.90
921;DHT22;447;51.332;6.778;2023-09-18T06:57:25;23.40;96.80
921;DHT22;447;51.332;6.778;2023-09-18T06:59:51;23.40;96.80
921;DHT22;447;51.332;6.778;2023-09-18T07:02:17;23.40;96.80
921;DHT22;447;51.332;6.778;2023-09-18T07:04:48;23.40;96.80
921;DHT22;447;51.332;6.778;2023-09-18T07:07:15;23.40;96.80
921;DHT22;447;51.332;6.778;2023-09-18T07:09:42;23.40;96.80
921;DHT22;447;51.332;6.778;2023-09-18T07:12:10;23.40;96.80
921;DHT22;447;51.332;6.778;2023-09-18T07:14:39;23.40;96.90
921;DHT22;447;51.332;6.778;2023-09-18T07:17:05;23.40;96.90
921;DHT22;447;51.332;6.778;2023-09-18T07:19:31;23.40;97.00
921;DHT22;447;51.332;6.778;2023-09-18T07:22:00;23.40;96.80
921;DHT22;447;51.332;6.778;2023-09-18T07:24:26;23.40;96.90
921;DHT22;447;51.332;6.778;2023-09-18T07:26:55;23.40;96.90
921;DHT22;447;51.332;6.778;2023-09-18T07:29:24;23.40;96.80
921;DHT22;447;51.332;6.778;2023-09-18T07:31:58;23.40;96.80
921;DHT22;447;51.332;6.778;2023-09-18T07:34:26;23.40;96.90
921;DHT22;447;51.332;6.778;2023-09-18T07:36:54;23.40;96.90
921;DHT22;447;51.332;6.778;2023-09-18T07:39:22;23.40;96.90
921;DHT22;447;51.332;6.778;2023-09-18T07:41:48;23.40;96.80
921;DHT22;447;51.332;6.778;2023-09-18T07:44:20;23.40;96.80
921;DHT22;447;51.332;6.778;2023-09-18T07:46:47;23.40;96.90
921;DHT22;447;51.332;6.778;2023-09-18T07:49:13;23.40;96.80
921;DHT22;447;51.332;6.778;2023-09-18T07:51:44;23.40;96.80
921;DHT22;447;51.332;6.778;2023-09-18T07:54:13;23.40;96.90
921;DHT22;447;51.332;6.778;2023-09-18T07:56:39;23.40;96.80
921;DHT22;447;51.332;6.778;2023-09-18T07:59:08;23.40;97.20
921;DHT22;447;51.332;6.778;2023-09-18T08:01:36;23.40;96.80
921;DHT22;447;51.332;6.778;2023-09-18T08:04:02;23.40;96.80
921;DHT22;447;51.332;6.778;2023-09-18T08:06:28;23.40;96.90
921;DHT22;447;51.332;6.778;2023-09-18T08:08:54;23.40;96.90
921;DHT22;447;51.332;6.778;2023-09-18T08:11:20;23.40;96.90
921;DHT22;447;51.332;6.778;2023-09-18T08:13:52;23.40;96.90
921;DHT22;447;51.332;6.778;2023-09-18T08:16:18;23.40;97.30
921;DHT22;447;51.332;6.778;2023-09-18T08:18:46;23.40;96.90
921;DHT22;447;51.332;6.778;2023-09-18T08:21:16;23.40;96.90
921;DHT22;447;51.332;6.778;2023-09-18T08:23:43;23.40;96.80
921;DHT22;447;51.332;6.778;2023-09-18T08:26:11;23.40;96.90
921;DHT22;447;51.332;6.778;2023-09-18T08:28:37;23.40;96.80
921;DHT22;447;51.332;6.778;2023-09-18T08:31:09;23.40;96.90
921;DHT22;447;51.332;6.778;2023-09-18T08:33:36;23.40;96.90
921;DHT22;447;51.332;6.778;2023-09-18T08:36:06;23.40;96.80
921;DHT22;447;51.332;6.778;2023-09-18T08:38:33;23.40;96.80
921;DHT22;447;51.332;6.778;2023-09-18T08:40:59;23.40;96.80
921;DHT22;447;51.332;6.778;2023-09-18T08:43:31;23.40;96.70
921;DHT22;447;51.332;6.778;2023-09-18T08:46:05;23.40;96.70
921;DHT22;447;51.332;6.778;2023-09-18T08:48:31;23.40;96.70
921;DHT22;447;51.332;6.778;2023-09-18T08:51:08;23.40;96.70
921;DHT22;447;51.332;6.778;2023-09-18T08:53:37;23.40;96.70
921;DHT22;447;51.332;6.778;2023-09-18T08:56:04;23.40;96.60
921;DHT22;447;51.332;6.778;2023-09-18T08:58:36;23.40;96.70
921;DHT22;447;51.332;6.778;2023-09-18T09:01:06;23.40;96.60
921;DHT22;447;51.332;6.778;2023-09-18T09:03:38;23.40;96.70
921;DHT22;447;51.332;6.778;2023-09-18T09:06:07;23.40;96.70
921;DHT22;447;51.332;6.778;2023-09-18T09:08:35;23.40;96.60
921;DHT22;447;51.332;6.778;2023-09-18T09:11:02;23.40;96.60
921;DHT22;447;51.332;6.778;2023-09-18T09:13:29;23.50;96.60
921;DHT22;447;51.332;6.778;2023-09-18T09:15:56;23.50;96.60
921;DHT22;447;51.332;6.778;2023-09-18T09:18:27;23.50;96.70
921;DHT22;447;51.332;6.778;2023-09-18T09:21:01;23.50;96.60
921;DHT22;447;51.332;6.778;2023-09-18T09:23:46;23.50;96.60
921;DHT22;447;51.332;6.778;2023-09-18T09:26:19;23.50;96.60
921;DHT22;447;51.332;6.778;2023-09-18T09:28:46;23.50;96.60
921;DHT22;447;51.332;6.778;2023-09-18T09:31:27;23.50;96.60
921;DHT22;447;51.332;6.778;2023-09-18T09:33:54;23.50;96.60
921;DHT22;447;51.332;6.778;2023-09-18T09:36:21;23.50;96.60
921;DHT22;447;51.332;6.778;2023-09-18T09:38:47;23.50;96.60
921;DHT22;447;51.332;6.778;2023-09-18T09:41:16;23.50;96.60
921;DHT22;447;51.332;6.778;2023-09-18T09:43:43;23.50;96.60
921;DHT22;447;51.332;6.778;2023-09-18T09:46:16;23.50;96.50
921;DHT22;447;51.332;6.778;2023-09-18T09:49:00;23.50;96.50
921;DHT22;447;51.332;6.778;2023-09-18T09:51:29;23.60;96.50
921;DHT22;447;51.332;6.778;2023-09-18T09:53:57;23.60;96.50
921;DHT22;447;51.332;6.778;2023-09-18T09:56:41;23.60;96.40
921;DHT22;447;51.332;6.778;2023-09-18T09:59:08;23.60;96.70
921;DHT22;447;51.332;6.778;2023-09-18T10:01:35;23.60;96.30
921;DHT22;447;51.332;6.778;2023-09-18T10:04:05;23.60;96.30
921;DHT22;447;51.332;6.778;2023-09-18T10:06:35;23.60;96.30
921;DHT22;447;51.332;6.778;2023-09-18T10:09:06;23.60;96.40
921;DHT22;447;51.332;6.778;2023-09-18T10:11:41;23.60;96.40
921;DHT22;447;51.332;6.778;2023-09-18T10:14:16;23.70;96.40
921;DHT22;447;51.332;6.778;2023-09-18T10:16:49;23.70;96.40
921;DHT22;447;51.332;6.778;2023-09-18T10:21:54;23.70;96.20
921;DHT22;447;51.332;6.778;2023-09-18T10:24:28;23.70;96.20
921;DHT22;447;51.332;6.778;2023-09-18T10:27:02;23.70;96.10
921;DHT22;447;51.332;6.778;2023-09-18T10:29:32;23.70;96.00
921;DHT22;447;51.332;6.778;2023-09-18T10:32:03;23.70;96.00
921;DHT22;447;51.332;6.778;2023-09-18T10:34:38;23.70;95.90
921;DHT22;447;51.332;6.778;2023-09-18T10:37:10;23.80;95.90
921;DHT22;447;51.332;6.778;2023-09-18T10:39:42;23.80;95.90
921;DHT22;447;51.332;6.778;2023-09-18T10:42:15;23.80;95.90
921;DHT22;447;51.332;6.778;2023-09-18T10:44:47;23.80;95.90
921;DHT22;447;51.332;6.778;2023-09-18T10:47:16;23.80;95.80
921;DHT22;447;51.332;6.778;2023-09-18T10:49:44;23.80;95.70
921;DHT22;447;51.332;6.778;2023-09-18T10:52:13;23.80;95.60
921;DHT22;447;51.332;6.778;2023-09-18T10:54:44;23.90;95.60
921;DHT22;447;51.332;6.778;2023-09-18T10:57:11;23.90;95.60
921;DHT22;447;51.332;6.778;2023-09-18T10:59:47;23.90;95.50
921;DHT22;447;51.332;6.778;2023-09-18T11:02:16;23.90;95.50
921;DHT22;447;51.332;6.778;2023-09-18T11:04:44;23.90;95.40
921;DHT22;447;51.332;6.778;2023-09-18T11:07:22;23.90;95.40
921;DHT22;447;51.332;6.778;2023-09-18T11:09:53;23.90;95.30
921;DHT22;447;51.332;6.778;2023-09-18T11:12:19;23.90;95.20
921;DHT22;447;51.332;6.778;2023-09-18T11:18:02;24.00;95.20
921;DHT22;447;51.332;6.778;2023-09-18T11:20:33;24.00;95.20
921;DHT22;447;51.332;6.778;2023-09-18T11:25:42;24.10;95.20
921;DHT22;447;51.332;6.778;2023-09-18T11:28:23;24.10;95.20
921;DHT22;447;51.332;6.778;2023-09-18T11:30:51;24.10;95.10
921;DHT22;447;51.332;6.778;2023-09-18T11:33:37;24.10;94.80
921;DHT22;447;51.332;6.778;2023-09-18T11:36:12;24.20;94.80
921;DHT22;447;51.332;6.778;2023-09-18T11:39:00;24.20;94.70
921;DHT22;447;51.332;6.778;2023-09-18T11:41:35;24.20;94.70
921;DHT22;447;51.332;6.778;2023-09-18T11:46:44;24.20;94.50
921;DHT22;447;51.332;6.778;2023-09-18T11:49:11;24.30;94.50
921;DHT22;447;51.332;6.778;2023-09-18T11:51:38;24.30;94.50
921;DHT22;447;51.332;6.778;2023-09-18T11:54:05;24.30;94.40
921;DHT22;447;51.332;6.778;2023-09-18T11:56:33;24.40;94.40
921;DHT22;447;51.332;6.778;2023-09-18T11:58:59;24.40;94.40
921;DHT22;447;51.332;6.778;2023-09-18T12:01:31;24.40;94.30
921;DHT22;447;51.332;6.778;2023-09-18T12:04:03;24.40;94.30
921;DHT22;447;51.332;6.778;2023-09-18T12:06:35;24.40;94.30
921;DHT22;447;51.332;6.778;2023-09-18T12:09:03;24.40;94.30
921;DHT22;447;51.332;6.778;2023-09-18T12:11:33;24.40;94.20
921;DHT22;447;51.332;6.778;2023-09-18T12:14:05;24.50;94.10
921;DHT22;447;51.332;6.778;2023-09-18T12:16:37;24.50;94.00
921;DHT22;447;51.332;6.778;2023-09-18T12:19:09;24.50;94.00
921;DHT22;447;51.332;6.778;2023-09-18T12:21:46;24.50;93.90
921;DHT22;447;51.332;6.778;2023-09-18T12:24:39;24.50;93.90
921;DHT22;447;51.332;6.778;2023-09-18T12:27:08;24.50;93.90
921;DHT22;447;51.332;6.778;2023-09-18T12:29:34;24.50;93.80
921;DHT22;447;51.332;6.778;2023-09-18T12:32:03;24.50;93.30
921;DHT22;447;51.332;6.778;2023-09-18T12:34:34;24.50;93.10
921;DHT22;447;51.332;6.778;2023-09-18T12:37:00;24.50;91.90
921;DHT22;447;51.332;6.778;2023-09-18T12:39:32;24.50;91.50
921;DHT22;447;51.332;6.778;2023-09-18T12:42:08;24.60;91.80
921;DHT22;447;51.332;6.778;2023-09-18T12:44:36;24.70;91.70
921;DHT22;447;51.332;6.778;2023-09-18T12:47:03;24.80;91.80
921;DHT22;447;51.332;6.778;2023-09-18T12:49:34;24.90;91.90
921;DHT22;447;51.332;6.778;2023-09-18T12:52:01;24.90;91.70
921;DHT22;447;51.332;6.778;2023-09-18T12:54:39;25.00;92.00
921;DHT22;447;51.332;6.778;2023-09-18T12:57:09;25.00;91.60
921;DHT22;447;51.332;6.778;2023-09-18T12:59:36;25.00;91.60
921;DHT22;447;51.332;6.778;2023-09-18T13:02:04;25.00;91.60
921;DHT22;447;51.332;6.778;2023-09-18T13:04:34;25.10;91.80
921;DHT22;447;51.332;6.778;2023-09-18T13:07:09;25.10;91.80
921;DHT22;447;51.332;6.778;2023-09-18T13:09:37;25.10;91.90
921;DHT22;447;51.332;6.778;2023-09-18T13:12:05;25.10;91.80
921;DHT22;447;51.332;6.778;2023-09-18T13:14:58;25.10;91.80
921;DHT22;447;51.332;6.778;2023-09-18T13:17:46;25.20;91.80
921;DHT22;447;51.332;6.778;2023-09-18T13:20:16;25.20;92.00
921;DHT22;447;51.332;6.778;2023-09-18T13:22:48;25.20;91.70
921;DHT22;447;51.332;6.778;2023-09-18T13:25:26;25.20;91.70
921;DHT22;447;51.332;6.778;2023-09-18T13:27:54;25.20;91.50
921;DHT22;447;51.332;6.778;2023-09-18T13:30:21;25.20;91.50
921;DHT22;447;51.332;6.778;2023-09-18T13:32:50;25.20;91.50
921;DHT22;447;51.332;6.778;2023-09-18T13:35:19;25.20;91.30
921;DHT22;447;51.332;6.778;2023-09-18T13:37:53;25.20;91.40
921;DHT22;447;51.332;6.778;2023-09-18T13:40:21;25.20;91.50
921;DHT22;447;51.332;6.778;2023-09-18T13:42:48;25.20;91.50
921;DHT22;447;51.332;6.778;2023-09-18T13:45:15;25.30;91.50
921;DHT22;447;51.332;6.778;2023-09-18T13:47:42;25.30;91.40
921;DHT22;447;51.332;6.778;2023-09-18T13:50:11;25.30;91.30
921;DHT22;447;51.332;6.778;2023-09-18T13:52:39;25.30;91.10
921;DHT22;447;51.332;6.778;2023-09-18T13:55:05;25.30;91.00
921;DHT22;447;51.332;6.778;2023-09-18T13:57:32;25.30;90.80
921;DHT22;447;51.332;6.778;2023-09-18T14:00:04;25.30;90.70
921;DHT22;447;51.332;6.778;2023-09-18T14:02:41;25.40;90.80
921;DHT22;447;51.332;6.778;2023-09-18T14:05:09;25.40;90.50
921;DHT22;447;51.332;6.778;2023-09-18T14:07:35;25.40;90.40
921;DHT22;447;51.332;6.778;2023-09-18T14:10:06;25.40;90.50
921;DHT22;447;51.332;6.778;2023-09-18T14:12:39;25.40;90.50
921;DHT22;447;51.332;6.778;2023-09-18T14:15:08;25.40;90.60
921;DHT22;447;51.332;6.778;2023-09-18T14:17:53;25.40;90.50
921;DHT22;447;51.332;6.778;2023-09-18T14:20:20;25.40;90.50
921;DHT22;447;51.332;6.778;2023-09-18T14:22:47;25.40;90.50
921;DHT22;447;51.332;6.778;2023-09-18T14:25:17;25.40;90.50
921;DHT22;447;51.332;6.778;2023-09-18T14:27:48;25.40;90.60
921;DHT22;447;51.332;6.778;2023-09-18T14:30:48;25.40;90.70
921;DHT22;447;51.332;6.778;2023-09-18T14:33:15;25.40;90.50
921;DHT22;447;51.332;6.778;2023-09-18T14:35:41;25.50;90.60
921;DHT22;447;51.332;6.778;2023-09-18T14:38:09;25.50;90.60
921;DHT22;447;51.332;6.778;2023-09-18T14:40:36;25.50;90.40
921;DHT22;447;51.332;6.778;2023-09-18T14:43:05;25.50;90.20
921;DHT22;447;51.332;6.778;2023-09-18T14:45:33;25.50;90.40
921;DHT22;447;51.332;6.778;2023-09-18T14:48:04;25.50;90.30
921;DHT22;447;51.332;6.778;2023-09-18T14:50:30;25.50;90.20
921;DHT22;447;51.332;6.778;2023-09-18T14:52:56;25.50;90.10
921;DHT22;447;51.332;6.778;2023-09-18T14:55:24;25.60;90.10
921;DHT22;447;51.332;6.778;2023-09-18T14:57:50;25.60;90.10
921;DHT22;447;51.332;6.778;2023-09-18T15:00:18;25.60;90.20
921;DHT22;447;51.332;6.778;2023-09-18T15:02:44;25.60;90.10
921;DHT22;447;51.332;6.778;2023-09-18T15:05:15;25.60;90.10
921;DHT22;447;51.332;6.778;2023-09-18T15:07:46;25.60;90.20
921;DHT22;447;51.332;6.778;2023-09-18T15:10:14;25.60;89.80
921;DHT22;447;51.332;6.778;2023-09-18T15:12:43;25.60;89.70
921;DHT22;447;51.332;6.778;2023-09-18T15:15:14;25.60;89.80
921;DHT22;447;51.332;6.778;2023-09-18T15:17:45;25.70;89.80
921;DHT22;447;51.332;6.778;2023-09-18T15:20:11;25.70;89.80
921;DHT22;447;51.332;6.778;2023-09-18T15:22:39;25.70;89.50
921;DHT22;447;51.332;6.778;2023-09-18T15:25:05;25.70;89.60
921;DHT22;447;51.332;6.778;2023-09-18T15:27:37;25.70;89.70
921;DHT22;447;51.332;6.778;2023-09-18T15:30:06;25.70;89.90
921;DHT22;447;51.332;6.778;2023-09-18T15:35:17;25.70;89.50
921;DHT22;447;51.332;6.778;2023-09-18T15:37:44;25.70;89.50
921;DHT22;447;51.332;6.778;2023-09-18T15:40:11;25.70;89.30
921;DHT22;447;51.332;6.778;2023-09-18T15:42:44;25.70;88.70
921;DHT22;447;51.332;6.778;2023-09-18T15:45:16;25.80;89.10
921;DHT22;447;51.332;6.778;2023-09-18T15:47:42;25.70;89.00
921;DHT22;447;51.332;6.778;2023-09-18T15:50:13;25.80;89.10
921;DHT22;447;51.332;6.778;2023-09-18T15:52:40;25.80;89.00
921;DHT22;447;51.332;6.778;2023-09-18T15:55:06;25.80;88.40
921;DHT22;447;51.332;6.778;2023-09-18T15:57:34;25.80;88.10
921;DHT22;447;51.332;6.778;2023-09-18T16:00:04;25.80;88.40
921;DHT22;447;51.332;6.778;2023-09-18T16:02:41;25.80;88.50
921;DHT22;447;51.332;6.778;2023-09-18T16:05:08;25.80;88.10
921;DHT22;447;51.332;6.778;2023-09-18T16:07:38;25.80;88.20
921;DHT22;447;51.332;6.778;2023-09-18T16:10:10;25.80;88.00
921;DHT22;447;51.332;6.778;2023-09-18T16:12:37;25.80;88.30
921;DHT22;447;51.332;6.778;2023-09-18T16:15:03;25.90;88.30
921;DHT22;447;51.332;6.778;2023-09-18T16:17:32;25.90;88.30
921;DHT22;447;51.332;6.778;2023-09-18T16:19:58;25.90;88.00
921;DHT22;447;51.332;6.778;2023-09-18T16:22:28;25.90;88.30
921;DHT22;447;51.332;6.778;2023-09-18T16:24:56;25.90;88.10
921;DHT22;447;51.332;6.778;2023-09-18T16:27:28;25.90;88.00
921;DHT22;447;51.332;6.778;2023-09-18T16:29:54;25.90;87.40
921;DHT22;447;51.332;6.778;2023-09-18T16:32:28;25.90;87.30
921;DHT22;447;51.332;6.778;2023-09-18T16:34:57;25.90;87.40
921;DHT22;447;51.332;6.778;2023-09-18T16:37:25;25.80;87.60
921;DHT22;447;51.332;6.778;2023-09-18T16:39:54;25.80;87.00
921;DHT22;447;51.332;6.778;2023-09-18T16:42:21;25.80;87.20
921;DHT22;447;51.332;6.778;2023-09-18T16:44:52;25.70;87.00
921;DHT22;447;51.332;6.778;2023-09-18T16:47:22;25.80;87.40
921;DHT22;447;51.332;6.778;2023-09-18T16:49:52;25.80;87.40
921;DHT22;447;51.332;6.778;2023-09-18T16:52:20;25.80;87.40
921;DHT22;447;51.332;6.778;2023-09-18T16:54:47;25.70;87.00
921;DHT22;447;51.332;6.778;2023-09-18T16:57:16;25.70;87.40
921;DHT22;447;51.332;6.778;2023-09-18T16:59:42;25.70;87.40
921;DHT22;447;51.332;6.778;2023-09-18T17:02:08;25.70;87.60